Time;durP1;ratioP1;P1;durP2;ratioP2;P2;SDS_P1;SDS_P2;PMS_P1;PMS_P2;Temp;Humidity;BMP_temperature;BMP_pressure;BME280_temperature;BME280_humidity;BME280_pressure;Samples;Min_cycle;Max_cycle;Signal;HPM_P1;HPM_P2
2022/09/23 00:02:29;;;;;;;15.73;10.45;;;;;;;-141.48;100.00;69781.59;5200819;28;20038;-65
2022/09/23 00:05:00;;;;;;;10.63;9.68;;;;;;;-141.48;100.00;69781.59;5200687;28;20110;-65
2022/09/23 00:07:30;;;;;;;10.55;9.88;;;;;;;-141.48;100.00;69781.59;5201160;28;20106;-65
2022/09/23 00:10:01;;;;;;;10.20;9.38;;;;;;;-141.48;100.00;69781.59;5201144;28;20060;-65
2022/09/23 00:12:32;;;;;;;14.65;10.13;;;;;;;-141.48;100.00;69781.59;5201160;28;20034;-68
2022/09/23 00:15:03;;;;;;;11.23;10.30;;;;;;;-141.48;100.00;69781.59;5217361;28;20027;-64
2022/09/23 00:17:33;;;;;;;11.20;10.10;;;;;;;-141.48;100.00;69781.59;5201246;28;20025;-66
2022/09/23 00:20:05;;;;;;;10.50;9.48;;;;;;;-141.48;100.00;69781.59;5201030;28;20025;-64
2022/09/23 00:22:36;;;;;;;10.02;9.32;;;;;;;-141.48;100.00;69781.59;5201509;28;20104;-64
2022/09/23 00:25:08;;;;;;;9.43;8.75;;;;;;;-141.48;100.00;69781.59;5200950;28;20473;-63
2022/09/23 00:27:39;;;;;;;10.02;9.13;;;;;;;-141.48;100.00;69781.59;5203279;28;20452;-63
2022/09/23 00:30:09;;;;;;;8.55;8.05;;;;;;;-141.48;100.00;69781.59;5205619;28;20029;-62
2022/09/23 00:32:40;;;;;;;10.98;9.95;;;;;;;-141.48;100.00;69781.59;5205785;28;20060;-64
2022/09/23 00:35:14;;;;;;;10.32;9.40;;;;;;;-141.48;100.00;69781.59;5205197;28;20021;-63
2022/09/23 00:37:44;;;;;;;10.32;9.68;;;;;;;-141.48;100.00;69781.59;5205234;28;20044;-67
2022/09/23 00:40:15;;;;;;;9.48;8.70;;;;;;;-141.48;100.00;69781.59;5205521;28;20083;-64
2022/09/23 00:42:47;;;;;;;8.73;8.20;;;;;;;-141.48;100.00;69781.59;5206676;28;20310;-63
2022/09/23 00:45:18;;;;;;;10.35;9.65;;;;;;;-141.48;100.00;69781.59;5204879;28;20069;-63
2022/09/23 00:48:00;;;;;;;11.40;10.57;;;;;;;-141.48;100.00;69781.59;5205211;28;20156;-63
2022/09/23 00:50:38;;;;;;;10.15;9.25;;;;;;;-141.48;100.00;69781.59;5204873;28;20037;-63
2022/09/23 00:53:13;;;;;;;11.15;9.18;;;;;;;-141.48;100.00;69781.59;5205025;28;20055;-65
2022/09/23 00:55:51;;;;;;;12.32;11.10;;;;;;;-141.48;100.00;69781.59;5204755;28;20199;-65
2022/09/23 00:58:30;;;;;;;11.35;10.40;;;;;;;-141.48;100.00;69781.59;5204727;28;20083;-64
2022/09/23 01:01:01;;;;;;;9.23;8.43;;;;;;;-141.48;100.00;69781.59;5204852;28;20445;-63
2022/09/23 01:03:31;;;;;;;9.00;8.30;;;;;;;-141.48;100.00;69781.59;5205797;28;20025;-63
2022/09/23 01:06:02;;;;;;;9.95;9.25;;;;;;;-141.48;100.00;69781.59;5205900;28;20018;-66
2022/09/23 01:08:33;;;;;;;9.45;8.65;;;;;;;-141.48;100.00;69781.59;5205788;28;20102;-64
2022/09/23 01:11:48;;;;;;;11.18;10.38;;;;;;;-141.48;100.00;69781.59;5204497;28;20025;-64
2022/09/23 01:14:51;;;;;;;12.48;11.30;;;;;;;-141.48;100.00;69781.59;5181321;28;20436;-65
2022/09/23 01:17:47;;;;;;;10.32;9.52;;;;;;;-141.48;100.00;69781.59;5201482;28;20494;-64
2022/09/23 01:20:29;;;;;;;10.68;10.05;;;;;;;-141.48;100.00;69781.59;5204073;28;20021;-64
2022/09/23 01:23:27;;;;;;;10.73;9.63;;;;;;;-141.48;100.00;69781.59;5204363;28;20035;-64
2022/09/23 01:26:03;;;;;;;10.82;9.98;;;;;;;-141.48;100.00;69781.59;5204332;28;20390;-65
2022/09/23 01:29:11;;;;;;;10.77;10.02;;;;;;;-141.48;100.00;69781.59;5203921;28;20116;-64
2022/09/23 01:31:44;;;;;;;12.35;11.45;;;;;;;-141.48;100.00;69781.59;5204198;28;20462;-64
2022/09/23 01:34:56;;;;;;;13.85;10.90;;;;;;;-141.48;100.00;69781.59;5203908;28;20458;-63
2022/09/23 01:37:43;;;;;;;11.73;11.02;;;;;;;-141.48;100.00;69781.59;5145793;28;20030;-64
2022/09/23 01:40:24;;;;;;;13.07;11.77;;;;;;;-141.48;100.00;69781.59;5200037;28;20106;-65
2022/09/23 01:43:23;;;;;;;12.82;11.85;;;;;;;-141.48;100.00;69781.59;5204084;28;20470;-63
2022/09/23 01:45:58;;;;;;;12.23;11.05;;;;;;;-141.48;100.00;69781.59;5203911;28;20021;-63
2022/09/23 01:48:37;;;;;;;12.80;11.65;;;;;;;-141.48;100.00;69781.59;5204004;28;20025;-64
2022/09/23 01:51:18;;;;;;;12.23;11.43;;;;;;;-141.48;100.00;69781.59;5204080;28;20032;-63
2022/09/23 01:53:56;;;;;;;22.25;10.73;;;;;;;-141.48;100.00;69781.59;5203851;28;20029;-63
2022/09/23 01:56:42;;;;;;;12.95;11.93;;;;;;;-141.48;100.00;69781.59;5203857;28;20044;-63
2022/09/23 01:59:35;;;;;;;11.88;10.82;;;;;;;-141.48;100.00;69781.59;5203667;28;20370;-65
2022/09/23 02:02:14;;;;;;;12.73;11.63;;;;;;;-141.48;100.00;69781.59;5203525;28;20026;-63
2022/09/23 02:04:56;;;;;;;14.53;12.93;;;;;;;-141.48;100.00;69781.59;5203403;28;20025;-62
2022/09/23 02:07:34;;;;;;;12.45;11.55;;;;;;;-141.48;100.00;69781.59;5203551;28;20140;-64
2022/09/23 02:10:11;;;;;;;12.45;11.60;;;;;;;-141.48;100.00;69781.59;5203191;28;20029;-64
2022/09/23 02:12:48;;;;;;;12.68;11.70;;;;;;;-141.48;100.00;69781.59;5204723;28;20029;-64
2022/09/23 02:15:24;;;;;;;12.80;11.70;;;;;;;-141.48;100.00;69781.59;5202897;28;20477;-64
2022/09/23 02:18:05;;;;;;;9.68;8.88;;;;;;;-141.48;100.00;69781.59;5203075;28;20098;-64
2022/09/23 02:20:40;;;;;;;12.93;11.82;;;;;;;-141.48;100.00;69781.59;5202951;28;20428;-66
2022/09/23 02:23:15;;;;;;;14.20;12.90;;;;;;;-141.48;100.00;69781.59;5219619;28;20025;-65
2022/09/23 02:26:10;;;;;;;11.25;10.55;;;;;;;-141.48;100.00;69781.59;5202575;28;20018;-63
2022/09/23 02:29:40;;;;;;;9.38;8.77;;;;;;;-141.48;100.00;69781.59;5202804;28;20053;-64
2022/09/23 02:32:20;;;;;;;10.32;9.50;;;;;;;-141.48;100.00;69781.59;5160835;28;20608;-66
2022/09/23 02:35:00;;;;;;;13.38;10.38;;;;;;;-141.48;100.00;69781.59;5144531;28;20453;-64
2022/09/23 02:37:51;;;;;;;10.57;9.82;;;;;;;-141.48;100.00;69781.59;5190997;28;20040;-63
2022/09/23 02:40:28;;;;;;;12.18;10.98;;;;;;;-141.48;100.00;69781.59;5202636;28;20030;-64
2022/09/23 02:43:34;;;;;;;10.15;9.15;;;;;;;-141.48;100.00;69781.59;5204467;28;20049;-64
2022/09/23 02:46:06;;;;;;;11.10;10.10;;;;;;;-141.48;100.00;69781.59;5202737;28;20026;-64
2022/09/23 02:48:52;;;;;;;10.07;9.38;;;;;;;-141.48;100.00;69781.59;5204172;28;20382;-66
2022/09/23 02:51:27;;;;;;;10.48;9.88;;;;;;;-141.48;100.00;69781.59;5202000;28;20056;-65
2022/09/23 02:53:58;;;;;;;9.57;8.77;;;;;;;-141.48;100.00;69781.59;5202164;28;20300;-68
2022/09/23 02:56:28;;;;;;;10.85;9.93;;;;;;;-141.48;100.00;69781.59;5202588;28;20029;-66
2022/09/23 02:58:59;;;;;;;26.35;10.85;;;;;;;-141.48;100.00;69781.59;5227210;22;20112;-79
2022/09/23 03:01:48;;;;;;;10.50;9.65;;;;;;;-141.48;100.00;69781.59;5240452;28;20025;-79
2022/09/23 03:04:46;;;;;;;10.52;9.60;;;;;;;-141.48;100.00;69781.59;5212672;28;20026;-79
2022/09/23 03:07:39;;;;;;;9.25;8.57;;;;;;;-141.48;100.00;69781.59;5212472;28;20031;-80
2022/09/23 03:10:40;;;;;;;11.00;10.25;;;;;;;-141.48;100.00;69781.59;5213157;28;20490;-79
2022/09/23 03:13:34;;;;;;;10.70;10.07;;;;;;;-141.48;100.00;69781.59;5213295;28;20507;-81
2022/09/23 03:16:11;;;;;;;11.52;10.43;;;;;;;-141.48;100.00;69781.59;5211932;28;20041;-80
2022/09/23 03:18:58;;;;;;;11.07;9.48;;;;;;;-141.48;100.00;69781.59;5212704;28;20033;-80
2022/09/23 03:21:37;;;;;;;12.27;11.00;;;;;;;-141.48;100.00;69781.59;5212991;28;20029;-80
2022/09/23 03:24:12;;;;;;;8.73;8.13;;;;;;;-141.48;100.00;69781.59;5211244;28;20029;-81
2022/09/23 03:26:46;;;;;;;11.68;10.68;;;;;;;-141.48;100.00;69781.59;5212812;28;20155;-79
2022/09/23 03:29:18;;;;;;;11.43;9.40;;;;;;;-141.48;100.00;69781.59;5194236;28;20491;-80
2022/09/23 03:31:49;;;;;;;11.45;10.73;;;;;;;-141.48;100.00;69781.59;5194871;28;20475;-80
2022/09/23 03:34:25;;;;;;;10.25;9.55;;;;;;;-141.48;100.00;69781.59;5193732;28;20032;-80
2022/09/23 03:37:06;;;;;;;11.20;10.25;;;;;;;-141.48;100.00;69781.59;5212509;28;20064;-79
2022/09/23 03:39:45;;;;;;;12.57;11.38;;;;;;;-141.48;100.00;69781.59;5198765;28;20478;-80
2022/09/23 03:42:22;;;;;;;10.55;9.55;;;;;;;-141.48;100.00;69781.59;5195621;28;20037;-79
2022/09/23 03:44:55;;;;;;;12.18;10.90;;;;;;;-141.48;100.00;69781.59;5208872;28;20013;-79
2022/09/23 03:47:27;;;;;;;11.63;10.85;;;;;;;-141.48;100.00;69781.59;5211746;28;20025;-80
2022/09/23 03:49:58;;;;;;;12.32;11.52;;;;;;;-141.48;100.00;69781.59;5212129;28;20047;-79
2022/09/23 03:52:28;;;;;;;11.75;10.90;;;;;;;-141.48;100.00;69781.59;5211520;28;20510;-77
2022/09/23 03:54:58;;;;;;;12.15;11.25;;;;;;;-141.48;100.00;69781.59;5205303;28;20388;-78
2022/09/23 03:57:30;;;;;;;10.20;9.55;;;;;;;-141.48;100.00;69781.59;5210347;28;20081;-79
2022/09/23 04:00:02;;;;;;;11.52;10.30;;;;;;;-141.48;100.00;69781.59;5208061;28;20033;-79
2022/09/23 04:02:32;;;;;;;11.65;10.88;;;;;;;-141.48;100.00;69781.59;5213659;28;20083;-79
2022/09/23 04:05:03;;;;;;;12.77;11.68;;;;;;;-141.48;100.00;69781.59;5214060;28;20290;-77
2022/09/23 04:07:34;;;;;;;12.57;11.57;;;;;;;-141.48;100.00;69781.59;5213936;28;20025;-80
2022/09/23 04:10:05;;;;;;;13.38;12.23;;;;;;;-141.48;100.00;69781.59;5213797;28;20522;-79
2022/09/23 04:12:36;;;;;;;12.80;11.60;;;;;;;-141.48;100.00;69781.59;5197144;28;20099;-79
2022/09/23 04:15:06;;;;;;;14.25;12.93;;;;;;;-141.48;100.00;69781.59;5213566;28;20021;-80
2022/09/23 04:17:37;;;;;;;11.68;10.90;;;;;;;-141.48;100.00;69781.59;5215315;28;20026;-79
2022/09/23 04:20:07;;;;;;;13.90;12.70;;;;;;;-141.48;100.00;69781.59;5214824;28;20018;-79
2022/09/23 04:22:38;;;;;;;12.27;11.43;;;;;;;-141.48;100.00;69781.59;5214347;28;20450;-79
2022/09/23 04:25:08;;;;;;;12.95;12.00;;;;;;;-141.48;100.00;69781.59;5213786;28;20072;-79
2022/09/23 04:27:39;;;;;;;14.68;13.57;;;;;;;-141.48;100.00;69781.59;5214888;28;20036;-78
2022/09/23 04:30:10;;;;;;;12.30;11.40;;;;;;;-141.48;100.00;69781.59;5214177;28;20025;-78
2022/09/23 04:32:40;;;;;;;14.10;12.90;;;;;;;-141.48;100.00;69781.59;5214308;28;20033;-78
2022/09/23 04:35:11;;;;;;;15.50;14.23;;;;;;;-141.48;100.00;69781.59;5213193;28;20025;-78
2022/09/23 04:37:41;;;;;;;14.52;13.43;;;;;;;-141.48;100.00;69781.59;5214844;28;20017;-79
2022/09/23 04:40:12;;;;;;;13.00;12.18;;;;;;;-141.48;100.00;69781.59;5214332;28;20033;-80
2022/09/23 04:42:42;;;;;;;13.57;12.45;;;;;;;-141.48;100.00;69781.59;5215099;28;20037;-78
2022/09/23 04:45:12;;;;;;;13.90;12.48;;;;;;;-141.48;100.00;69781.59;5197382;28;20010;-78
2022/09/23 04:47:43;;;;;;;12.77;11.70;;;;;;;-141.48;100.00;69781.59;5215477;28;20033;-79
2022/09/23 04:50:13;;;;;;;13.63;12.68;;;;;;;-141.48;100.00;69781.59;5204489;28;20029;-80
2022/09/23 04:52:44;;;;;;;12.38;11.32;;;;;;;-141.48;100.00;69781.59;5200560;28;20052;-80
2022/09/23 04:55:14;;;;;;;14.68;13.38;;;;;;;-141.48;100.00;69781.59;5217668;28;20033;-81
2022/09/23 04:57:45;;;;;;;13.20;11.90;;;;;;;-141.48;100.00;69781.59;5216974;28;20036;-78
2022/09/23 05:00:15;;;;;;;13.95;12.70;;;;;;;-141.48;100.00;69781.59;5215222;28;20126;-79
2022/09/23 05:02:48;;;;;;;13.07;12.13;;;;;;;-141.48;100.00;69781.59;5215681;28;20100;-79
2022/09/23 05:05:19;;;;;;;12.77;11.88;;;;;;;-141.48;100.00;69781.59;5215412;28;20037;-80
2022/09/23 05:07:50;;;;;;;12.77;11.82;;;;;;;-141.48;100.00;69781.59;5206542;28;20112;-80
2022/09/23 05:10:21;;;;;;;12.18;11.27;;;;;;;-141.48;100.00;69781.59;5206822;28;20048;-82
2022/09/23 05:12:52;;;;;;;13.43;12.32;;;;;;;-141.48;100.00;69781.59;5239464;28;20024;-82
2022/09/23 05:15:22;;;;;;;13.50;12.40;;;;;;;-141.48;100.00;69781.59;5250366;28;20013;-81
2022/09/23 05:17:56;;;;;;;12.27;11.27;;;;;;;-141.48;100.00;69781.59;5230422;28;20068;-83
2022/09/23 05:20:27;;;;;;;12.95;11.50;;;;;;;-141.48;100.00;69781.59;5211745;28;20021;-80
2022/09/23 05:22:58;;;;;;;14.05;12.93;;;;;;;-141.48;100.00;69781.59;5228031;28;20025;-80
2022/09/23 05:25:29;;;;;;;14.65;13.32;;;;;;;-141.48;100.00;69781.59;5230197;28;20031;-81
2022/09/23 05:27:59;;;;;;;15.00;13.65;;;;;;;-141.48;100.00;69781.59;5211233;28;20049;-82
2022/09/23 05:30:30;;;;;;;13.55;12.57;;;;;;;-141.48;100.00;69781.59;5231018;28;20108;-82
2022/09/23 05:33:01;;;;;;;13.38;12.38;;;;;;;-141.48;100.00;69781.59;5229486;28;20032;-82
2022/09/23 05:35:32;;;;;;;13.65;12.30;;;;;;;-141.48;100.00;69781.59;5225466;28;20025;-82
2022/09/23 05:38:02;;;;;;;15.38;13.98;;;;;;;-141.48;100.00;69781.59;5224967;28;20021;-82
2022/09/23 05:40:32;;;;;;;13.65;12.55;;;;;;;-141.48;100.00;69781.59;5222329;28;20033;-80
2022/09/23 05:43:03;;;;;;;13.38;12.55;;;;;;;-141.48;100.00;69781.59;5224402;28;20029;-80
2022/09/23 05:45:35;;;;;;;14.70;13.50;;;;;;;-141.48;100.00;69781.59;5221140;28;20036;-80
2022/09/23 05:48:05;;;;;;;15.07;13.93;;;;;;;-141.48;100.00;69781.59;5207084;28;20026;-80
2022/09/23 05:50:35;;;;;;;14.23;12.85;;;;;;;-141.48;100.00;69781.59;5225766;28;20081;-81
2022/09/23 05:53:06;;;;;;;15.00;13.77;;;;;;;-141.48;100.00;69781.59;5225926;28;20025;-81
2022/09/23 05:55:36;;;;;;;13.65;12.65;;;;;;;-141.48;100.00;69781.59;5207808;28;20534;-80
2022/09/23 05:58:06;;;;;;;13.18;12.05;;;;;;;-141.48;100.00;69781.59;5222659;28;20033;-81
2022/09/23 06:00:42;;;;;;;13.73;12.63;;;;;;;-141.48;100.00;69781.59;5223864;28;20037;-81
2022/09/23 06:03:14;;;;;;;13.93;12.35;;;;;;;-141.48;100.00;69781.59;5225271;28;20056;-81
2022/09/23 06:05:45;;;;;;;13.48;12.15;;;;;;;-141.48;100.00;69781.59;5223682;28;20025;-83
2022/09/23 06:08:15;;;;;;;14.40;12.98;;;;;;;-141.48;100.00;69781.59;5208011;28;20030;-80
2022/09/23 06:10:47;;;;;;;14.80;13.50;;;;;;;-141.48;100.00;69781.59;5219193;28;20026;-81
2022/09/23 06:13:17;;;;;;;14.02;12.90;;;;;;;-141.48;100.00;69781.59;5206461;28;20038;-81
2022/09/23 06:15:47;;;;;;;13.75;12.93;;;;;;;-141.48;100.00;69781.59;5224246;28;20048;-81
2022/09/23 06:18:18;;;;;;;12.70;11.57;;;;;;;-141.48;100.00;69781.59;5225248;28;20021;-81
2022/09/23 06:20:48;;;;;;;17.05;14.77;;;;;;;-141.48;100.00;69781.59;5223057;28;20022;-80
2022/09/23 06:23:18;;;;;;;13.65;12.65;;;;;;;-141.48;100.00;69781.59;5221498;28;20048;-82
2022/09/23 06:25:49;;;;;;;14.32;12.85;;;;;;;-141.48;100.00;69781.59;5219898;28;20056;-82
2022/09/23 06:28:19;;;;;;;13.90;12.52;;;;;;;-141.48;100.00;69781.59;5219580;28;20025;-79
2022/09/23 06:30:56;;;;;;;13.43;12.23;;;;;;;-141.48;100.00;69781.59;5216558;28;20030;-80
2022/09/23 06:33:26;;;;;;;11.57;10.77;;;;;;;-141.48;100.00;69781.59;5216425;28;20036;-80
2022/09/23 06:36:01;;;;;;;13.75;12.70;;;;;;;-141.48;100.00;69781.59;5219377;28;20017;-80
2022/09/23 06:38:35;;;;;;;12.77;11.73;;;;;;;-141.48;100.00;69781.59;5220093;28;20037;-79
2022/09/23 06:41:05;;;;;;;13.02;12.10;;;;;;;-141.48;100.00;69781.59;5218939;28;20053;-80
2022/09/23 06:43:36;;;;;;;12.82;11.88;;;;;;;-141.48;100.00;69781.59;5198987;28;20055;-79
2022/09/23 06:46:10;;;;;;;13.30;12.07;;;;;;;-141.48;100.00;69781.59;5216715;28;20073;-82
2022/09/23 06:48:42;;;;;;;11.68;10.48;;;;;;;-141.48;100.00;69781.59;5214873;28;20553;-81
2022/09/23 06:51:20;;;;;;;10.77;10.07;;;;;;;-141.48;100.00;69781.59;5216309;28;20044;-80
2022/09/23 06:53:51;;;;;;;12.52;11.52;;;;;;;-141.48;100.00;69781.59;5198681;28;20033;-79
2022/09/23 06:56:22;;;;;;;11.05;10.15;;;;;;;-141.48;100.00;69781.59;5198589;28;20112;-80
2022/09/23 06:58:53;;;;;;;9.60;8.93;;;;;;;-141.48;100.00;69781.59;5214635;28;20025;-79
2022/09/23 07:01:23;;;;;;;11.52;10.60;;;;;;;-141.48;100.00;69781.59;5214633;28;20036;-80
2022/09/23 07:03:54;;;;;;;12.85;10.60;;;;;;;-141.48;100.00;69781.59;5216958;28;20018;-81
2022/09/23 07:06:24;;;;;;;11.35;10.43;;;;;;;-141.48;100.00;69781.59;5216354;28;20018;-79
2022/09/23 07:08:55;;;;;;;10.85;9.90;;;;;;;-141.48;100.00;69781.59;5215197;28;20079;-80
2022/09/23 07:11:25;;;;;;;10.13;9.13;;;;;;;-141.48;100.00;69781.59;5214715;28;20025;-79
2022/09/23 07:13:56;;;;;;;13.63;10.98;;;;;;;-141.48;100.00;69781.59;5214579;28;20028;-81
2022/09/23 07:16:26;;;;;;;12.02;10.93;;;;;;;-141.48;100.00;69781.59;5194626;28;20079;-80
2022/09/23 07:18:57;;;;;;;12.13;10.98;;;;;;;-141.48;100.00;69781.59;5215141;28;20017;-80
2022/09/23 07:21:27;;;;;;;11.30;10.45;;;;;;;-141.48;100.00;69781.59;5215690;28;20159;-80
2022/09/23 07:23:58;;;;;;;9.93;8.43;;;;;;;-141.48;100.00;69781.59;5215934;28;20117;-80
2022/09/23 07:26:32;;;;;;;8.50;7.90;;;;;;;-141.48;100.00;69781.59;5216188;28;20075;-80
2022/09/23 07:29:05;;;;;;;10.70;9.80;;;;;;;-141.48;100.00;69781.59;5218784;28;20021;-80
2022/09/23 07:31:36;;;;;;;9.57;8.77;;;;;;;-141.48;100.00;69781.59;5227150;28;20027;-79
2022/09/23 07:34:10;;;;;;;10.35;9.15;;;;;;;-141.48;100.00;69781.59;5227921;28;20028;-78
2022/09/23 07:36:40;;;;;;;10.15;8.48;;;;;;;-141.48;100.00;69781.59;5228987;28;20075;-79
2022/09/23 07:39:11;;;;;;;11.07;10.07;;;;;;;-141.48;100.00;69781.59;5231711;28;20441;-79
2022/09/23 07:41:43;;;;;;;10.25;9.35;;;;;;;-141.48;100.00;69781.59;5239519;28;20028;-80
2022/09/23 07:44:13;;;;;;;8.30;7.72;;;;;;;-141.48;100.00;69781.59;5237780;28;20032;-79
2022/09/23 07:46:43;;;;;;;8.63;8.15;;;;;;;-141.48;100.00;69781.59;5238189;28;20025;-81
2022/09/23 07:49:14;;;;;;;6.95;6.45;;;;;;;-141.48;100.00;69781.59;5237478;28;20111;-79
2022/09/23 07:51:45;;;;;;;9.25;8.30;;;;;;;-141.48;100.00;69781.59;5217394;28;20079;-80
2022/09/23 07:54:17;;;;;;;10.05;9.23;;;;;;;-141.48;100.00;69781.59;5234282;28;20028;-79
2022/09/23 07:56:47;;;;;;;12.30;8.52;;;;;;;-141.48;100.00;69781.59;5234063;28;20013;-79
2022/09/23 07:59:17;;;;;;;8.32;7.72;;;;;;;-141.48;100.00;69781.59;5214466;28;20559;-79
2022/09/23 08:01:51;;;;;;;8.00;7.25;;;;;;;-141.48;100.00;69781.59;5232699;28;20021;-79
2022/09/23 08:04:25;;;;;;;9.38;8.48;;;;;;;-141.48;100.00;69781.59;5232966;28;20024;-80
2022/09/23 08:07:00;;;;;;;12.30;10.82;;;;;;;-141.48;100.00;69781.59;5233476;28;20023;-79
2022/09/23 08:09:40;;;;;;;10.32;9.30;;;;;;;-141.48;100.00;69781.59;5232204;28;20036;-79
2022/09/23 08:12:12;;;;;;;;;;;;;;;-141.48;100.00;69781.59;5231929;28;20025;-79
2022/09/23 08:14:43;;;;;;;15.27;9.20;;;;;;;-141.48;100.00;69781.59;5236008;28;19916;-80
2022/09/23 08:17:13;;;;;;;10.73;9.77;;;;;;;-141.48;100.00;69781.59;5227354;28;20048;-79
2022/09/23 08:19:44;;;;;;;9.60;8.88;;;;;;;-141.48;100.00;69781.59;5224972;28;20025;-79
2022/09/23 08:22:15;;;;;;;8.70;8.10;;;;;;;-141.48;100.00;69781.59;5227005;28;20029;-79
2022/09/23 08:24:45;;;;;;;11.40;9.50;;;;;;;-141.48;100.00;69781.59;5225883;28;20021;-79
2022/09/23 08:27:15;;;;;;;11.70;7.75;;;;;;;-141.48;100.00;69781.59;5209139;28;20082;-78
2022/09/23 08:29:46;;;;;;;7.85;7.35;;;;;;;-141.48;100.00;69781.59;5229048;28;20395;-79
2022/09/23 08:32:17;;;;;;;8.55;8.00;;;;;;;-141.48;100.00;69781.59;5233348;28;20023;-79
2022/09/23 08:34:47;;;;;;;8.85;7.72;;;;;;;-141.48;100.00;69781.59;5231632;28;20045;-81
2022/09/23 08:37:18;;;;;;;7.60;6.93;;;;;;;-141.48;100.00;69781.59;5230825;28;20406;-77
2022/09/23 08:39:49;;;;;;;10.20;6.68;;;;;;;-141.48;100.00;69781.59;5227001;28;20017;-79
2022/09/23 08:42:28;;;;;;;8.77;7.75;;;;;;;-141.48;100.00;69781.59;5227443;28;20021;-78
2022/09/23 08:45:04;;;;;;;8.15;6.70;;;;;;;-141.48;100.00;69781.59;5225789;28;20501;-78
2022/09/23 08:47:42;;;;;;;9.73;8.20;;;;;;;-141.48;100.00;69781.59;5227579;28;20029;-78
2022/09/23 08:50:27;;;;;;;6.85;6.35;;;;;;;-141.48;100.00;69781.59;5213686;28;20052;-78
2022/09/23 08:53:06;;;;;;;8.30;6.80;;;;;;;-141.48;100.00;69781.59;5231368;28;20060;-78
2022/09/23 08:55:43;;;;;;;7.90;7.17;;;;;;;-141.48;100.00;69781.59;5231024;28;20487;-79
2022/09/23 08:58:24;;;;;;;7.57;6.85;;;;;;;-141.48;100.00;69781.59;5232373;28;20108;-79
2022/09/23 09:01:12;;;;;;;13.63;8.40;;;;;;;-141.48;100.00;69781.59;5255912;22;20040;-80
2022/09/23 09:04:10;;;;;;;10.00;8.60;;;;;;;-141.48;100.00;69781.59;5213296;28;20104;-80
2022/09/23 09:06:49;;;;;;;7.72;7.22;;;;;;;-141.48;100.00;69781.59;5214390;28;20030;-79
2022/09/23 09:09:31;;;;;;;8.43;7.63;;;;;;;-141.48;100.00;69781.59;5213749;28;20029;-80
2022/09/23 09:12:16;;;;;;;12.77;6.60;;;;;;;-141.48;100.00;69781.59;5213577;28;20025;-79
2022/09/23 09:15:17;;;;;;;6.88;6.28;;;;;;;-141.48;100.00;69781.59;5212891;28;20029;-78
2022/09/23 09:18:18;;;;;;;8.18;7.38;;;;;;;-141.48;100.00;69781.59;5213598;28;20052;-80
2022/09/23 09:21:12;;;;;;;8.35;7.75;;;;;;;-141.48;100.00;69781.59;5195503;28;20438;-80
2022/09/23 09:23:49;;;;;;;9.07;7.47;;;;;;;-141.48;100.00;69781.59;5193989;28;20111;-82
2022/09/23 09:26:26;;;;;;;7.40;6.78;;;;;;;-141.48;100.00;69781.59;5213708;28;20036;-76
2022/09/23 09:28:59;;;;;;;9.63;7.30;;;;;;;-141.48;100.00;69781.59;5213002;28;20028;-81
2022/09/23 09:31:42;;;;;;;9.68;8.88;;;;;;;-141.48;100.00;69781.59;5213577;28;20542;-78
2022/09/23 09:34:36;;;;;;;8.30;7.60;;;;;;;-141.48;100.00;69781.59;5194545;28;20025;-78
2022/09/23 09:37:55;;;;;;;8.93;8.18;;;;;;;-141.48;100.00;69781.59;5195049;28;20021;-80
2022/09/23 09:40:25;;;;;;;7.40;6.83;;;;;;;-141.48;100.00;69781.59;5187833;28;20048;-80
2022/09/23 09:42:56;;;;;;;7.50;6.40;;;;;;;-141.48;100.00;69781.59;5212896;28;20052;-80
2022/09/23 09:45:42;;;;;;;10.85;7.15;;;;;;;-141.48;100.00;69781.59;5212027;28;20025;-79
2022/09/23 09:48:19;;;;;;;9.88;6.45;;;;;;;-141.48;100.00;69781.59;5196235;28;20104;-78
2022/09/23 09:50:52;;;;;;;6.68;5.65;;;;;;;-141.48;100.00;69781.59;5196252;28;20475;-79
2022/09/23 09:53:28;;;;;;;12.52;7.38;;;;;;;-141.48;100.00;69781.59;5210731;28;20037;-80
2022/09/23 09:56:00;;;;;;;6.05;5.45;;;;;;;-141.48;100.00;69781.59;5212137;28;20044;-81
2022/09/23 09:58:45;;;;;;;8.38;5.90;;;;;;;-141.48;100.00;69781.59;5198373;28;20021;-81
2022/09/23 10:01:33;;;;;;;6.47;5.90;;;;;;;-141.48;100.00;69781.59;5222372;28;20103;-80
2022/09/23 10:04:18;;;;;;;9.00;6.85;;;;;;;-141.48;100.00;69781.59;5213257;28;20128;-78
2022/09/23 10:07:11;;;;;;;7.93;7.20;;;;;;;-141.48;100.00;69781.59;5198263;28;20076;-81
2022/09/23 10:09:50;;;;;;;7.97;6.05;;;;;;;-141.48;100.00;69781.59;5215541;28;20074;-81
2022/09/23 10:12:23;;;;;;;7.10;6.35;;;;;;;-141.48;100.00;69781.59;5198022;28;20060;-80
2022/09/23 10:14:56;;;;;;;9.07;6.07;;;;;;;-141.48;100.00;69781.59;5215062;28;20025;-81
2022/09/23 10:17:32;;;;;;;7.97;6.65;;;;;;;-141.48;100.00;69781.59;5216389;28;20033;-81
2022/09/23 10:20:07;;;;;;;7.93;7.00;;;;;;;-141.48;100.00;69781.59;5214903;28;20029;-80
2022/09/23 10:22:41;;;;;;;8.25;7.55;;;;;;;-141.48;100.00;69781.59;5198053;28;20022;-81
2022/09/23 10:25:19;;;;;;;8.73;6.40;;;;;;;-141.48;100.00;69781.59;5196391;28;20483;-81
2022/09/23 10:27:50;;;;;;;6.90;6.18;;;;;;;-141.48;100.00;69781.59;5215762;28;20075;-81
2022/09/23 10:30:23;;;;;;;8.93;6.80;;;;;;;-141.48;100.00;69781.59;5215497;28;20021;-81
2022/09/23 10:32:55;;;;;;;6.13;5.53;;;;;;;-141.48;100.00;69781.59;5214965;28;20120;-82
2022/09/23 10:35:27;;;;;;;6.60;5.28;;;;;;;-141.48;100.00;69781.59;5213820;28;20017;-81
2022/09/23 10:38:00;;;;;;;8.05;5.93;;;;;;;-141.48;100.00;69781.59;5198251;28;20017;-80
2022/09/23 10:46:57;;;;;;;8.13;7.57;;;;;;;-141.48;100.00;69781.59;5217724;28;20064;-81
2022/09/23 10:49:51;;;;;;;7.28;5.60;;;;;;;-141.48;100.00;69781.59;5218934;28;20022;-79
2022/09/23 10:52:37;;;;;;;5.55;5.15;;;;;;;-141.48;100.00;69781.59;5220100;28;20077;-82
2022/09/23 10:55:37;;;;;;;8.50;7.72;;;;;;;-141.48;100.00;69781.59;5214746;28;20021;-81
2022/09/23 10:58:28;;;;;;;7.85;6.28;;;;;;;-141.48;100.00;69781.59;5216923;28;20025;-80
2022/09/23 11:01:33;;;;;;;6.40;5.10;;;;;;;-141.48;100.00;69781.59;5216938;28;20036;-81
2022/09/23 11:04:15;;;;;;;11.90;5.13;;;;;;;-141.48;100.00;69781.59;5216767;28;20034;-82
2022/09/23 11:07:12;;;;;;;6.30;4.82;;;;;;;-141.48;100.00;69781.59;5217878;28;20037;-81
2022/09/23 11:10:20;;;;;;;10.77;5.82;;;;;;;-141.48;100.00;69781.59;5201822;28;20030;-80
2022/09/23 11:13:15;;;;;;;4.60;4.20;;;;;;;-141.48;100.00;69781.59;5226142;28;20120;-80
2022/09/23 11:16:15;;;;;;;4.55;4.10;;;;;;;-141.48;100.00;69781.59;5218316;28;20021;-81
2022/09/23 11:19:15;;;;;;;8.75;4.57;;;;;;;-141.48;100.00;69781.59;5216531;28;20028;-81
2022/09/23 11:21:48;;;;;;;12.13;5.97;;;;;;;-141.48;100.00;69781.59;5216415;28;20318;-82
2022/09/23 11:24:48;;;;;;;4.18;3.78;;;;;;;-141.48;100.00;69781.59;5198346;28;20463;-82
2022/09/23 11:27:40;;;;;;;5.95;5.35;;;;;;;-141.48;100.00;69781.59;5216555;28;20037;-82
2022/09/23 11:30:15;;;;;;;6.15;4.90;;;;;;;-141.48;100.00;69781.59;5216528;28;20072;-82
2022/09/23 11:33:04;;;;;;;5.25;4.93;;;;;;;-141.48;100.00;69781.59;5217162;28;20035;-82
2022/09/23 11:35:40;;;;;;;;;;;;;;;-141.48;100.00;69781.59;5199532;28;20013;-82
2022/09/23 11:38:30;;;;;;;4.45;4.05;;;;;;;-141.48;100.00;69781.59;5199372;28;19913;-80
2022/09/23 11:41:11;;;;;;;6.57;5.97;;;;;;;-141.48;100.00;69781.59;5218403;28;20021;-84
2022/09/23 11:43:42;;;;;;;15.27;7.50;;;;;;;-141.48;100.00;69781.59;5201850;28;20036;-83
2022/09/23 11:46:38;;;;;;;3.95;3.63;;;;;;;-141.48;100.00;69781.59;5220572;28;20037;-84
2022/09/23 11:49:16;;;;;;;15.32;6.57;;;;;;;-141.48;100.00;69781.59;5202474;28;20043;-83
2022/09/23 11:52:04;;;;;;;17.17;6.90;;;;;;;-141.48;100.00;69781.59;5219800;28;20034;-85
2022/09/23 11:54:53;;;;;;;5.75;5.35;;;;;;;-141.48;100.00;69781.59;5218225;28;20068;-83